sensor_id;sensor_type;location;lat;lon;timestamp;pressure;altitude;pressure_sealevel;temperature;humidity
33697;BME280;20031;43.416;23.232;2022-07-01T00:00:46;99710.53;;;23.12;69.07
33697;BME280;20031;43.416;23.232;2022-07-01T00:03:12;99713.94;;;23.08;68.86
33697;BME280;20031;43.416;23.232;2022-07-01T00:05:37;99711.03;;;23.09;68.48
33697;BME280;20031;43.416;23.232;2022-07-01T00:08:03;99710.78;;;23.10;68.46
33697;BME280;20031;43.416;23.232;2022-07-01T00:10:29;99709.50;;;23.13;67.75
33697;BME280;20031;43.416;23.232;2022-07-01T00:12:54;99698.84;;;23.13;66.74
33697;BME280;20031;43.416;23.232;2022-07-01T00:15:19;99692.72;;;23.12;65.87
33697;BME280;20031;43.416;23.232;2022-07-01T00:17:45;99696.66;;;23.10;65.77
33697;BME280;20031;43.416;23.232;2022-07-01T00:20:11;99701.94;;;23.05;64.77
33697;BME280;20031;43.416;23.232;2022-07-01T00:22:36;99708.25;;;22.99;63.72
33697;BME280;20031;43.416;23.232;2022-07-01T00:25:02;99699.44;;;22.99;63.38
33697;BME280;20031;43.416;23.232;2022-07-01T00:27:28;99699.16;;;22.95;63.35
33697;BME280;20031;43.416;23.232;2022-07-01T00:29:53;99710.47;;;22.91;64.13
33697;BME280;20031;43.416;23.232;2022-07-01T00:32:19;99702.03;;;22.94;64.36
33697;BME280;20031;43.416;23.232;2022-07-01T00:34:44;99704.91;;;22.92;64.36
33697;BME280;20031;43.416;23.232;2022-07-01T00:37:10;99703.06;;;22.93;64.32
33697;BME280;20031;43.416;23.232;2022-07-01T00:39:35;99711.03;;;22.93;63.80
33697;BME280;20031;43.416;23.232;2022-07-01T00:42:03;99709.66;;;22.90;63.54
33697;BME280;20031;43.416;23.232;2022-07-01T00:44:29;99701.94;;;22.89;63.01
33697;BME280;20031;43.416;23.232;2022-07-01T00:46:56;99704.53;;;22.84;62.66
33697;BME280;20031;43.416;23.232;2022-07-01T00:49:23;99701.00;;;22.78;62.42
33697;BME280;20031;43.416;23.232;2022-07-01T00:51:49;99702.47;;;22.69;62.86
33697;BME280;20031;43.416;23.232;2022-07-01T00:54:15;99702.72;;;22.68;62.70
33697;BME280;20031;43.416;23.232;2022-07-01T00:56:41;99698.69;;;22.65;62.63
33697;BME280;20031;43.416;23.232;2022-07-01T00:59:06;99704.25;;;22.64;61.95
33697;BME280;20031;43.416;23.232;2022-07-01T01:01:32;99712.47;;;22.62;61.96
33697;BME280;20031;43.416;23.232;2022-07-01T01:03:58;99719.63;;;22.62;63.52
33697;BME280;20031;43.416;23.232;2022-07-01T01:06:23;99715.69;;;22.64;64.74
33697;BME280;20031;43.416;23.232;2022-07-01T01:08:49;99711.69;;;22.62;65.17
33697;BME280;20031;43.416;23.232;2022-07-01T01:11:16;99701.50;;;22.59;65.96
33697;BME280;20031;43.416;23.232;2022-07-01T01:13:42;99696.94;;;22.55;66.20
33697;BME280;20031;43.416;23.232;2022-07-01T01:16:15;99701.50;;;22.59;65.74
33697;BME280;20031;43.416;23.232;2022-07-01T01:18:41;99703.13;;;22.60;65.98
33697;BME280;20031;43.416;23.232;2022-07-01T01:21:07;99700.47;;;22.60;65.93
33697;BME280;20031;43.416;23.232;2022-07-01T01:23:32;99697.81;;;22.60;65.55
33697;BME280;20031;43.416;23.232;2022-07-01T01:25:57;99705.25;;;22.58;65.28
33697;BME280;20031;43.416;23.232;2022-07-01T01:28:24;99703.31;;;22.54;66.19
33697;BME280;20031;43.416;23.232;2022-07-01T01:30:50;99702.50;;;22.53;66.61
33697;BME280;20031;43.416;23.232;2022-07-01T01:33:15;99710.41;;;22.48;67.57
33697;BME280;20031;43.416;23.232;2022-07-01T01:35:41;99713.53;;;22.45;67.54
33697;BME280;20031;43.416;23.232;2022-07-01T01:38:07;99707.66;;;22.43;67.47
33697;BME280;20031;43.416;23.232;2022-07-01T01:40:33;99720.38;;;22.41;67.75
33697;BME280;20031;43.416;23.232;2022-07-01T01:42:59;99719.25;;;22.37;68.61
33697;BME280;20031;43.416;23.232;2022-07-01T01:45:24;99722.38;;;22.34;68.43
33697;BME280;20031;43.416;23.232;2022-07-01T01:47:49;99730.50;;;22.28;68.28
33697;BME280;20031;43.416;23.232;2022-07-01T01:50:15;99733.63;;;22.25;68.90
33697;BME280;20031;43.416;23.232;2022-07-01T01:52:41;99738.94;;;22.25;69.11
33697;BME280;20031;43.416;23.232;2022-07-01T01:55:08;99748.22;;;22.22;69.08
33697;BME280;20031;43.416;23.232;2022-07-01T01:57:34;99743.06;;;22.21;69.03
33697;BME280;20031;43.416;23.232;2022-07-01T02:00:00;99740.25;;;22.22;68.81
33697;BME280;20031;43.416;23.232;2022-07-01T02:02:25;99741.84;;;22.23;68.21
33697;BME280;20031;43.416;23.232;2022-07-01T02:04:51;99725.56;;;22.20;68.06
33697;BME280;20031;43.416;23.232;2022-07-01T02:07:16;99734.94;;;22.22;67.08
33697;BME280;20031;43.416;23.232;2022-07-01T02:09:42;99726.13;;;22.22;66.00
33697;BME280;20031;43.416;23.232;2022-07-01T02:12:07;99741.25;;;22.21;65.17
33697;BME280;20031;43.416;23.232;2022-07-01T02:14:33;99738.50;;;22.16;65.21
33697;BME280;20031;43.416;23.232;2022-07-01T02:16:58;99743.16;;;22.09;65.49
33697;BME280;20031;43.416;23.232;2022-07-01T02:19:24;99762.44;;;22.05;65.29
33697;BME280;20031;43.416;23.232;2022-07-01T02:21:49;99768.16;;;21.97;64.88
33697;BME280;20031;43.416;23.232;2022-07-01T02:24:18;99767.75;;;22.05;64.60
33697;BME280;20031;43.416;23.232;2022-07-01T02:26:44;99767.75;;;22.05;63.47
33697;BME280;20031;43.416;23.232;2022-07-01T02:29:09;99768.72;;;21.99;63.42
33697;BME280;20031;43.416;23.232;2022-07-01T02:31:35;99781.41;;;21.97;63.82
33697;BME280;20031;43.416;23.232;2022-07-01T02:34:00;99782.69;;;21.95;64.22
33697;BME280;20031;43.416;23.232;2022-07-01T02:36:26;99795.41;;;21.93;64.54
33697;BME280;20031;43.416;23.232;2022-07-01T02:38:51;99790.09;;;21.93;64.94
33697;BME280;20031;43.416;23.232;2022-07-01T02:41:16;99807.59;;;21.94;65.39
33697;BME280;20031;43.416;23.232;2022-07-01T02:43:42;99800.13;;;21.91;64.78
33697;BME280;20031;43.416;23.232;2022-07-01T02:46:07;99803.34;;;21.93;65.22
33697;BME280;20031;43.416;23.232;2022-07-01T02:48:33;99811.88;;;21.95;65.32
33697;BME280;20031;43.416;23.232;2022-07-01T02:50:58;99806.88;;;21.98;64.74
33697;BME280;20031;43.416;23.232;2022-07-01T02:53:24;99810.91;;;22.01;65.06
33697;BME280;20031;43.416;23.232;2022-07-01T02:55:49;99822.34;;;22.01;65.30
33697;BME280;20031;43.416;23.232;2022-07-01T02:58:15;99820.78;;;21.89;65.95
33697;BME280;20031;43.416;23.232;2022-07-01T03:00:40;99828.06;;;21.82;66.32
33697;BME280;20031;43.416;23.232;2022-07-01T03:03:06;99824.72;;;21.75;66.68
33697;BME280;20031;43.416;23.232;2022-07-01T03:05:32;99826.03;;;21.61;67.41
33697;BME280;20031;43.416;23.232;2022-07-01T03:07:57;99820.28;;;21.52;67.90
33697;BME280;20031;43.416;23.232;2022-07-01T03:10:23;99826.19;;;21.54;68.47
33697;BME280;20031;43.416;23.232;2022-07-01T03:12:49;99829.63;;;21.55;68.64
33697;BME280;20031;43.416;23.232;2022-07-01T03:15:15;99824.88;;;21.57;68.29
33697;BME280;20031;43.416;23.232;2022-07-01T03:17:42;99831.25;;;21.56;68.60
33697;BME280;20031;43.416;23.232;2022-07-01T03:20:10;99832.03;;;21.56;68.52
33697;BME280;20031;43.416;23.232;2022-07-01T03:22:37;99836.16;;;21.64;67.86
33697;BME280;20031;43.416;23.232;2022-07-01T03:25:03;99836.88;;;21.59;68.33
33697;BME280;20031;43.416;23.232;2022-07-01T03:27:29;99831.94;;;21.63;68.18
33697;BME280;20031;43.416;23.232;2022-07-01T03:29:55;99832.69;;;21.75;68.13
33697;BME280;20031;43.416;23.232;2022-07-01T03:32:21;99832.09;;;21.84;67.45
33697;BME280;20031;43.416;23.232;2022-07-01T03:34:50;99833.09;;;21.95;67.56
33697;BME280;20031;43.416;23.232;2022-07-01T03:37:16;99829.59;;;22.05;67.30
33697;BME280;20031;43.416;23.232;2022-07-01T03:39:43;99828.72;;;22.16;66.29
33697;BME280;20031;43.416;23.232;2022-07-01T03:42:09;99831.59;;;22.26;66.42
33697;BME280;20031;43.416;23.232;2022-07-01T03:44:35;99840.56;;;22.37;65.58
33697;BME280;20031;43.416;23.232;2022-07-01T03:47:01;99837.25;;;22.46;65.17
33697;BME280;20031;43.416;23.232;2022-07-01T03:49:27;99835.91;;;22.60;64.67
33697;BME280;20031;43.416;23.232;2022-07-01T03:51:52;99837.19;;;22.74;63.98
33697;BME280;20031;43.416;23.232;2022-07-01T03:54:18;99837.41;;;22.89;62.44
33697;BME280;20031;43.416;23.232;2022-07-01T03:57:00;99838.56;;;22.93;61.31
33697;BME280;20031;43.416;23.232;2022-07-01T03:59:27;99836.72;;;22.93;62.58
33697;BME280;20031;43.416;23.232;2022-07-01T04:01:54;99834.47;;;23.02;62.39
33697;BME280;20031;43.416;23.232;2022-07-01T04:04:21;99839.47;;;23.14;61.03
33697;BME280;20031;43.416;23.232;2022-07-01T04:06:47;99845.22;;;23.28;60.55
33697;BME280;20031;43.416;23.232;2022-07-01T04:09:14;99844.09;;;23.40;59.39
33697;BME280;20031;43.416;23.232;2022-07-01T04:11:41;99844.75;;;23.52;58.16
33697;BME280;20031;43.416;23.232;2022-07-01T04:14:08;99850.22;;;23.62;57.44
33697;BME280;20031;43.416;23.232;2022-07-01T04:16:34;99847.16;;;23.70;56.99
33697;BME280;20031;43.416;23.232;2022-07-01T04:19:00;99843.09;;;23.84;56.86
33697;BME280;20031;43.416;23.232;2022-07-01T04:21:25;99840.53;;;23.94;56.45
33697;BME280;20031;43.416;23.232;2022-07-01T04:24:09;99840.25;;;24.16;55.23
33697;BME280;20031;43.416;23.232;2022-07-01T04:26:35;99848.63;;;24.30;55.21
33697;BME280;20031;43.416;23.232;2022-07-01T04:29:00;99844.81;;;24.42;54.87
33697;BME280;20031;43.416;23.232;2022-07-01T04:31:26;99843.88;;;24.58;55.05
33697;BME280;20031;43.416;23.232;2022-07-01T04:33:52;99841.81;;;24.65;54.45
33697;BME280;20031;43.416;23.232;2022-07-01T04:36:17;99845.34;;;24.75;54.25
33697;BME280;20031;43.416;23.232;2022-07-01T04:38:43;99850.25;;;24.88;54.64
33697;BME280;20031;43.416;23.232;2022-07-01T04:41:09;99857.00;;;24.96;54.47
33697;BME280;20031;43.416;23.232;2022-07-01T04:43:53;99868.56;;;25.06;54.22
33697;BME280;20031;43.416;23.232;2022-07-01T04:46:18;99866.47;;;25.13;53.71
33697;BME280;20031;43.416;23.232;2022-07-01T04:48:44;99871.31;;;25.21;53.10
33697;BME280;20031;43.416;23.232;2022-07-01T04:51:09;99869.47;;;25.26;52.69
33697;BME280;20031;43.416;23.232;2022-07-01T04:53:35;99873.50;;;25.29;53.31
33697;BME280;20031;43.416;23.232;2022-07-01T04:56:00;99879.69;;;25.39;52.52
33697;BME280;20031;43.416;23.232;2022-07-01T04:58:26;99882.63;;;25.38;54.35
33697;BME280;20031;43.416;23.232;2022-07-01T05:00:52;99877.59;;;25.41;55.17
33697;BME280;20031;43.416;23.232;2022-07-01T05:03:18;99880.00;;;25.43;54.85
33697;BME280;20031;43.416;23.232;2022-07-01T05:05:44;99878.19;;;25.53;55.33
33697;BME280;20031;43.416;23.232;2022-07-01T05:08:09;99873.03;;;25.78;55.28
33697;BME280;20031;43.416;23.232;2022-07-01T05:10:34;99867.19;;;25.91;54.10
33697;BME280;20031;43.416;23.232;2022-07-01T05:13:00;99873.09;;;26.03;53.91
33697;BME280;20031;43.416;23.232;2022-07-01T05:15:25;99875.28;;;26.11;53.03
33697;BME280;20031;43.416;23.232;2022-07-01T05:17:51;99878.56;;;26.32;52.17
33697;BME280;20031;43.416;23.232;2022-07-01T05:20:35;99878.63;;;26.57;51.11
33697;BME280;20031;43.416;23.232;2022-07-01T05:23:19;99872.47;;;26.81;50.76
33697;BME280;20031;43.416;23.232;2022-07-01T05:25:44;99869.78;;;26.86;50.46
33697;BME280;20031;43.416;23.232;2022-07-01T05:28:10;99867.97;;;26.92;49.89
33697;BME280;20031;43.416;23.232;2022-07-01T05:30:35;99868.75;;;27.02;49.80
33697;BME280;20031;43.416;23.232;2022-07-01T05:33:01;99873.53;;;27.15;49.56
33697;BME280;20031;43.416;23.232;2022-07-01T05:35:26;99866.59;;;27.24;48.91
33697;BME280;20031;43.416;23.232;2022-07-01T05:37:52;99866.31;;;27.35;49.60
33697;BME280;20031;43.416;23.232;2022-07-01T05:40:17;99870.56;;;27.41;48.82
33697;BME280;20031;43.416;23.232;2022-07-01T05:42:44;99864.41;;;27.51;48.36
33697;BME280;20031;43.416;23.232;2022-07-01T05:45:10;99870.03;;;27.59;47.92
33697;BME280;20031;43.416;23.232;2022-07-01T05:47:35;99870.53;;;27.56;48.03
33697;BME280;20031;43.416;23.232;2022-07-01T05:50:00;99870.03;;;27.59;48.79
33697;BME280;20031;43.416;23.232;2022-07-01T05:52:26;99874.22;;;27.80;49.17
33697;BME280;20031;43.416;23.232;2022-07-01T05:54:51;99869.94;;;27.84;49.72
33697;BME280;20031;43.416;23.232;2022-07-01T05:57:17;99875.06;;;27.71;50.97
33697;BME280;20031;43.416;23.232;2022-07-01T05:59:42;99880.91;;;27.82;50.43
33697;BME280;20031;43.416;23.232;2022-07-01T06:02:08;99877.63;;;27.95;49.69
33697;BME280;20031;43.416;23.232;2022-07-01T06:04:33;99884.97;;;27.75;48.66
33697;BME280;20031;43.416;23.232;2022-07-01T06:06:59;99887.38;;;27.77;49.48
33697;BME280;20031;43.416;23.232;2022-07-01T06:09:24;99890.47;;;28.03;48.53
33697;BME280;20031;43.416;23.232;2022-07-01T06:11:50;99891.75;;;28.21;48.61
33697;BME280;20031;43.416;23.232;2022-07-01T06:14:16;99887.56;;;28.48;47.69
33697;BME280;20031;43.416;23.232;2022-07-01T06:16:41;99878.06;;;28.65;47.07
33697;BME280;20031;43.416;23.232;2022-07-01T06:19:06;99883.16;;;28.72;46.99
33697;BME280;20031;43.416;23.232;2022-07-01T06:21:32;99883.28;;;28.90;46.66
33697;BME280;20031;43.416;23.232;2022-07-01T06:23:58;99886.47;;;28.92;46.37
33697;BME280;20031;43.416;23.232;2022-07-01T06:26:24;99882.34;;;29.04;46.27
33697;BME280;20031;43.416;23.232;2022-07-01T06:28:50;99877.09;;;29.18;45.04
33697;BME280;20031;43.416;23.232;2022-07-01T06:31:15;99885.13;;;29.23;45.15
33697;BME280;20031;43.416;23.232;2022-07-01T06:33:41;99876.28;;;29.22;45.73
33697;BME280;20031;43.416;23.232;2022-07-01T06:36:06;99872.19;;;29.25;45.68
33697;BME280;20031;43.416;23.232;2022-07-01T06:38:32;99878.59;;;29.34;45.39
33697;BME280;20031;43.416;23.232;2022-07-01T06:40:58;99887.09;;;29.40;45.21
33697;BME280;20031;43.416;23.232;2022-07-01T06:43:42;99872.22;;;29.53;45.34
33697;BME280;20031;43.416;23.232;2022-07-01T06:46:09;99870.22;;;29.63;44.95
33697;BME280;20031;43.416;23.232;2022-07-01T06:48:35;99879.81;;;29.69;44.15
33697;BME280;20031;43.416;23.232;2022-07-01T06:51:01;99874.28;;;29.61;44.47
33697;BME280;20031;43.416;23.232;2022-07-01T06:53:27;99871.94;;;29.78;44.73
33697;BME280;20031;43.416;23.232;2022-07-01T06:55:53;99873.00;;;30.00;44.31
33697;BME280;20031;43.416;23.232;2022-07-01T06:58:18;99873.53;;;30.02;44.65
33697;BME280;20031;43.416;23.232;2022-07-01T07:00:44;99870.03;;;30.01;44.26
33697;BME280;20031;43.416;23.232;2022-07-01T07:03:09;99879.22;;;30.19;44.02
33697;BME280;20031;43.416;23.232;2022-07-01T07:05:35;99880.53;;;30.40;44.14
33697;BME280;20031;43.416;23.232;2022-07-01T07:08:00;99878.53;;;30.68;44.72
33697;BME280;20031;43.416;23.232;2022-07-01T07:10:26;99881.53;;;30.80;43.90
33697;BME280;20031;43.416;23.232;2022-07-01T07:12:51;99886.03;;;31.03;44.04
33697;BME280;20031;43.416;23.232;2022-07-01T07:15:17;99882.41;;;31.26;43.72
33697;BME280;20031;43.416;23.232;2022-07-01T07:17:43;99889.09;;;31.42;43.58
33697;BME280;20031;43.416;23.232;2022-07-01T07:20:09;99881.38;;;31.53;42.86
33697;BME280;20031;43.416;23.232;2022-07-01T07:22:35;99882.16;;;31.54;42.13
33697;BME280;20031;43.416;23.232;2022-07-01T07:25:00;99877.97;;;31.61;43.04
33697;BME280;20031;43.416;23.232;2022-07-01T07:27:25;99879.19;;;31.69;41.96
33697;BME280;20031;43.416;23.232;2022-07-01T07:29:51;99888.25;;;31.73;41.78
33697;BME280;20031;43.416;23.232;2022-07-01T07:32:16;99884.00;;;31.99;42.03
33697;BME280;20031;43.416;23.232;2022-07-01T07:34:42;99880.97;;;32.27;42.22
33697;BME280;20031;43.416;23.232;2022-07-01T07:37:07;99879.31;;;32.53;40.85
33697;BME280;20031;43.416;23.232;2022-07-01T07:39:33;99874.91;;;32.56;40.69
33697;BME280;20031;43.416;23.232;2022-07-01T07:41:58;99875.16;;;32.68;40.30
33697;BME280;20031;43.416;23.232;2022-07-01T07:44:24;99872.38;;;32.82;40.25
33697;BME280;20031;43.416;23.232;2022-07-01T07:46:49;99873.34;;;32.86;39.57
33697;BME280;20031;43.416;23.232;2022-07-01T07:49:15;99867.66;;;32.87;38.98
33697;BME280;20031;43.416;23.232;2022-07-01T07:51:40;99875.94;;;33.12;39.03
33697;BME280;20031;43.416;23.232;2022-07-01T07:54:06;99863.00;;;33.31;38.79
33697;BME280;20031;43.416;23.232;2022-07-01T07:56:31;99859.41;;;33.44;37.86
33697;BME280;20031;43.416;23.232;2022-07-01T07:58:57;99857.75;;;33.57;38.07
33697;BME280;20031;43.416;23.232;2022-07-01T08:01:23;99860.97;;;33.58;37.86
33697;BME280;20031;43.416;23.232;2022-07-01T08:03:48;99860.34;;;33.70;37.59
33697;BME280;20031;43.416;23.232;2022-07-01T08:06:14;99864.53;;;33.84;37.56
33697;BME280;20031;43.416;23.232;2022-07-01T08:08:39;99868.41;;;34.00;37.09
33697;BME280;20031;43.416;23.232;2022-07-01T08:11:05;99859.53;;;34.08;36.42
33697;BME280;20031;43.416;23.232;2022-07-01T08:13:31;99857.75;;;34.12;36.37
33697;BME280;20031;43.416;23.232;2022-07-01T08:15:56;99858.75;;;34.33;36.86
33697;BME280;20031;43.416;23.232;2022-07-01T08:18:23;99861.50;;;34.50;36.47
33697;BME280;20031;43.416;23.232;2022-07-01T08:20:48;99858.28;;;34.56;35.84
33697;BME280;20031;43.416;23.232;2022-07-01T08:23:18;99854.31;;;34.62;34.70
33697;BME280;20031;43.416;23.232;2022-07-01T08:25:44;99854.78;;;34.64;35.11
33697;BME280;20031;43.416;23.232;2022-07-01T08:28:09;99857.34;;;34.69;35.92
33697;BME280;20031;43.416;23.232;2022-07-01T08:30:35;99850.31;;;34.93;34.83
33697;BME280;20031;43.416;23.232;2022-07-01T08:33:00;99848.53;;;35.06;34.43
33697;BME280;20031;43.416;23.232;2022-07-01T08:35:26;99850.31;;;34.93;34.46
33697;BME280;20031;43.416;23.232;2022-07-01T08:37:51;99852.53;;;34.91;33.99
33697;BME280;20031;43.416;23.232;2022-07-01T08:40:16;99854.28;;;34.96;34.54
33697;BME280;20031;43.416;23.232;2022-07-01T08:42:43;99848.16;;;35.24;34.76
33697;BME280;20031;43.416;23.232;2022-07-01T08:45:09;99843.00;;;35.48;34.25
33697;BME280;20031;43.416;23.232;2022-07-01T08:47:48;99840.75;;;35.50;34.12
33697;BME280;20031;43.416;23.232;2022-07-01T08:50:14;99844.94;;;35.39;34.13
33697;BME280;20031;43.416;23.232;2022-07-01T08:52:40;99841.25;;;35.43;33.55
33697;BME280;20031;43.416;23.232;2022-07-01T08:55:05;99847.59;;;35.56;33.58
33697;BME280;20031;43.416;23.232;2022-07-01T08:57:31;99846.19;;;35.78;33.83
33697;BME280;20031;43.416;23.232;2022-07-01T09:00:04;99844.75;;;35.81;33.19
33697;BME280;20031;43.416;23.232;2022-07-01T09:02:48;99849.22;;;35.85;32.31
33697;BME280;20031;43.416;23.232;2022-07-01T09:05:14;99840.16;;;36.02;32.22
33697;BME280;20031;43.416;23.232;2022-07-01T09:07:39;99849.09;;;36.02;32.33
33697;BME280;20031;43.416;23.232;2022-07-01T09:10:16;99845.41;;;36.27;30.92
33697;BME280;20031;43.416;23.232;2022-07-01T09:12:47;99849.09;;;36.31;30.49
33697;BME280;20031;43.416;23.232;2022-07-01T09:15:23;99848.38;;;36.54;31.55
33697;BME280;20031;43.416;23.232;2022-07-01T09:17:54;99845.75;;;36.66;31.02
33697;BME280;20031;43.416;23.232;2022-07-01T09:20:25;99841.97;;;36.79;31.17
33697;BME280;20031;43.416;23.232;2022-07-01T09:25:34;99848.75;;;37.17;29.92
33697;BME280;20031;43.416;23.232;2022-07-01T09:28:06;99840.63;;;36.85;29.70
33697;BME280;20031;43.416;23.232;2022-07-01T09:30:32;99845.72;;;36.86;30.13
33697;BME280;20031;43.416;23.232;2022-07-01T09:33:16;99846.56;;;37.11;29.99
33697;BME280;20031;43.416;23.232;2022-07-01T09:35:44;99843.19;;;37.14;29.74
33697;BME280;20031;43.416;23.232;2022-07-01T09:38:13;99837.69;;;37.22;30.17
33697;BME280;20031;43.416;23.232;2022-07-01T09:40:56;99832.03;;;37.51;30.84
33697;BME280;20031;43.416;23.232;2022-07-01T09:43:30;99830.00;;;37.48;29.09
33697;BME280;20031;43.416;23.232;2022-07-01T09:46:10;99829.53;;;37.46;29.62
33697;BME280;20031;43.416;23.232;2022-07-01T09:51:03;99828.78;;;37.81;29.75
33697;BME280;20031;43.416;23.232;2022-07-01T09:53:29;99824.47;;;37.80;29.49
33697;BME280;20031;43.416;23.232;2022-07-01T09:55:54;99827.75;;;37.85;29.47
33697;BME280;20031;43.416;23.232;2022-07-01T09:58:20;99827.50;;;38.02;29.62
33697;BME280;20031;43.416;23.232;2022-07-01T10:00:45;99819.19;;;37.99;28.96
33697;BME280;20031;43.416;23.232;2022-07-01T10:03:12;99820.69;;;38.08;29.00
33697;BME280;20031;43.416;23.232;2022-07-01T10:05:50;99812.59;;;38.24;29.06
33697;BME280;20031;43.416;23.232;2022-07-01T10:13:39;99808.75;;;38.25;28.59
33697;BME280;20031;43.416;23.232;2022-07-01T10:16:08;99806.75;;;38.37;28.93
33697;BME280;20031;43.416;23.232;2022-07-01T10:18:34;99810.81;;;38.55;28.10
33697;BME280;20031;43.416;23.232;2022-07-01T10:21:00;99806.75;;;38.49;28.11
33697;BME280;20031;43.416;23.232;2022-07-01T10:23:41;99805.56;;;38.62;27.75
33697;BME280;20031;43.416;23.232;2022-07-01T10:26:07;99805.63;;;38.65;27.86
33697;BME280;20031;43.416;23.232;2022-07-01T10:31:18;99800.72;;;38.71;27.33
33697;BME280;20031;43.416;23.232;2022-07-01T10:39:11;99799.13;;;39.12;26.89
33697;BME280;20031;43.416;23.232;2022-07-01T10:44:17;99794.66;;;39.20;25.96
33697;BME280;20031;43.416;23.232;2022-07-01T10:49:52;99790.31;;;39.80;26.32
33697;BME280;20031;43.416;23.232;2022-07-01T10:52:18;99790.03;;;39.70;26.19
33697;BME280;20031;43.416;23.232;2022-07-01T10:59:48;99780.78;;;39.90;25.62
33697;BME280;20031;43.416;23.232;2022-07-01T11:02:19;99764.53;;;39.96;24.93
33697;BME280;20031;43.416;23.232;2022-07-01T11:04:45;99766.78;;;40.10;25.42
33697;BME280;20031;43.416;23.232;2022-07-01T11:07:11;99763.09;;;40.02;25.23
33697;BME280;20031;43.416;23.232;2022-07-01T11:09:37;99758.63;;;39.94;25.03
33697;BME280;20031;43.416;23.232;2022-07-01T11:12:04;99752.91;;;39.99;25.36
33697;BME280;20031;43.416;23.232;2022-07-01T11:14:34;99744.00;;;40.21;24.55
33697;BME280;20031;43.416;23.232;2022-07-01T11:17:01;99741.41;;;40.28;24.47
33697;BME280;20031;43.416;23.232;2022-07-01T11:19:26;99730.97;;;40.52;24.63
33697;BME280;20031;43.416;23.232;2022-07-01T11:21:53;99738.25;;;40.45;25.22
33697;BME280;20031;43.416;23.232;2022-07-01T11:24:20;99734.06;;;40.70;24.90
33697;BME280;20031;43.416;23.232;2022-07-01T11:26:45;99735.47;;;40.83;24.57
33697;BME280;20031;43.416;23.232;2022-07-01T11:29:14;99734.16;;;40.77;24.74
33697;BME280;20031;43.416;23.232;2022-07-01T11:31:41;99726.88;;;40.62;24.95
33697;BME280;20031;43.416;23.232;2022-07-01T11:34:07;99728.59;;;40.70;24.62
33697;BME280;20031;43.416;23.232;2022-07-01T11:36:33;99731.00;;;40.75;24.71
33697;BME280;20031;43.416;23.232;2022-07-01T11:39:18;99729.63;;;40.84;24.73
33697;BME280;20031;43.416;23.232;2022-07-01T11:41:47;99722.44;;;40.76;23.86
33697;BME280;20031;43.416;23.232;2022-07-01T11:44:12;99726.16;;;40.87;23.54
33697;BME280;20031;43.416;23.232;2022-07-01T11:46:38;99714.00;;;40.85;24.15
33697;BME280;20031;43.416;23.232;2022-07-01T11:49:11;99704.91;;;41.00;24.24
33697;BME280;20031;43.416;23.232;2022-07-01T11:51:38;99703.84;;;41.07;23.68
33697;BME280;20031;43.416;23.232;2022-07-01T11:54:03;99705.97;;;41.17;23.50
33697;BME280;20031;43.416;23.232;2022-07-01T11:56:34;99700.84;;;41.16;23.08
33697;BME280;20031;43.416;23.232;2022-07-01T11:59:01;99698.22;;;41.23;22.96
33697;BME280;20031;43.416;23.232;2022-07-01T12:01:29;99685.19;;;41.39;23.88
33697;BME280;20031;43.416;23.232;2022-07-01T12:03:57;99702.28;;;41.32;23.36
33697;BME280;20031;43.416;23.232;2022-07-01T12:06:24;99688.50;;;41.51;23.14
33697;BME280;20031;43.416;23.232;2022-07-01T12:08:50;99687.28;;;41.49;22.87
33697;BME280;20031;43.416;23.232;2022-07-01T12:11:17;99689.06;;;41.63;23.07
33697;BME280;20031;43.416;23.232;2022-07-01T12:13:44;99694.38;;;41.53;23.54
33697;BME280;20031;43.416;23.232;2022-07-01T12:16:11;99686.38;;;41.67;22.69
33697;BME280;20031;43.416;23.232;2022-07-01T12:18:37;99690.19;;;41.88;22.60
33697;BME280;20031;43.416;23.232;2022-07-01T12:21:03;99681.00;;;41.74;22.10
33697;BME280;20031;43.416;23.232;2022-07-01T12:23:29;99683.91;;;41.58;22.74
33697;BME280;20031;43.416;23.232;2022-07-01T12:25:55;99685.81;;;41.54;22.28
33697;BME280;20031;43.416;23.232;2022-07-01T12:28:28;99681.81;;;41.49;22.26
33697;BME280;20031;43.416;23.232;2022-07-01T12:31:02;99681.50;;;41.02;21.60
33697;BME280;20031;43.416;23.232;2022-07-01T12:33:28;99681.72;;;40.94;21.43
33697;BME280;20031;43.416;23.232;2022-07-01T12:35:54;99687.19;;;40.94;21.21
33697;BME280;20031;43.416;23.232;2022-07-01T12:38:19;99685.06;;;40.84;21.73
33697;BME280;20031;43.416;23.232;2022-07-01T12:40:45;99679.41;;;40.96;21.77
33697;BME280;20031;43.416;23.232;2022-07-01T12:43:24;99673.84;;;40.89;21.53
33697;BME280;20031;43.416;23.232;2022-07-01T12:45:50;99681.06;;;40.78;22.24
33697;BME280;20031;43.416;23.232;2022-07-01T12:48:15;99673.09;;;40.92;22.03
33697;BME280;20031;43.416;23.232;2022-07-01T12:50:41;99666.16;;;41.20;22.08
33697;BME280;20031;43.416;23.232;2022-07-01T12:53:12;99674.69;;;41.41;21.25
33697;BME280;20031;43.416;23.232;2022-07-01T12:55:44;99663.00;;;41.44;21.07
33697;BME280;20031;43.416;23.232;2022-07-01T12:58:16;99658.34;;;41.22;21.76
33697;BME280;20031;43.416;23.232;2022-07-01T13:00:45;99660.09;;;40.85;21.77
33697;BME280;20031;43.416;23.232;2022-07-01T13:03:11;99655.66;;;40.55;22.13
33697;BME280;20031;43.416;23.232;2022-07-01T13:05:38;99654.88;;;40.54;21.93
33697;BME280;20031;43.416;23.232;2022-07-01T13:08:08;99656.91;;;40.80;22.40
33697;BME280;20031;43.416;23.232;2022-07-01T13:10:35;99655.00;;;40.84;21.63
33697;BME280;20031;43.416;23.232;2022-07-01T13:13:00;99654.25;;;41.09;21.66
33697;BME280;20031;43.416;23.232;2022-07-01T13:15:26;99646.81;;;41.35;22.45
33697;BME280;20031;43.416;23.232;2022-07-01T13:17:51;99651.22;;;41.69;21.88